Time;durP1;ratioP1;P1;durP2;ratioP2;P2;SDS_P1;SDS_P2;PMS_P1;PMS_P2;Temp;Humidity;BMP_temperature;BMP_pressure;BME280_temperature;BME280_humidity;BME280_pressure;Samples;Min_cycle;Max_cycle;Signal;HPM_P1;HPM_P2
2023/04/11 00:00:36;;;;;;;7.18;1.10;;;9.40;99.90;;;;;;5062226;28;20046;-86
2023/04/11 00:03:02;;;;;;;2.47;0.57;;;9.50;99.90;;;;;;5055631;28;20037;-87
2023/04/11 00:05:30;;;;;;;2.63;0.70;;;9.40;99.90;;;;;;5061655;28;20194;-86
2023/04/11 00:07:56;;;;;;;3.10;0.70;;;9.30;99.90;;;;;;5067939;28;20486;-86
2023/04/11 00:10:22;;;;;;;3.88;0.75;;;8.70;99.90;;;;;;5065769;28;20041;-86
2023/04/11 00:12:47;;;;;;;6.15;0.90;;;9.20;99.90;;;;;;5065409;28;20047;-88
2023/04/11 00:15:15;;;;;;;3.20;0.50;;;9.80;99.90;;;;;;5063986;28;20053;-86
2023/04/11 00:17:44;;;;;;;1.60;0.40;;;9.00;99.90;;;;;;5064026;28;20468;-86
2023/04/11 00:20:11;;;;;;;2.05;0.63;;;8.80;99.90;;;;;;5070264;28;20048;-86
2023/04/11 00:22:38;;;;;;;3.00;0.50;;;8.80;99.90;;;;;;5065183;28;20080;-86
2023/04/11 00:25:05;;;;;;;4.78;0.77;;;8.60;99.90;;;;;;5067186;28;20446;-86
2023/04/11 00:27:30;;;;;;;2.00;0.50;;;8.60;99.90;;;;;;5056656;28;20140;-87
2023/04/11 00:29:56;;;;;;;3.00;0.50;;;8.70;99.90;;;;;;5100954;28;20048;-87
2023/04/11 00:32:26;;;;;;;2.42;0.40;;;8.60;99.90;;;;;;5065066;28;20115;-88
2023/04/11 00:34:54;;;;;;;2.42;0.50;;;8.50;99.90;;;;;;5062261;28;20049;-86
2023/04/11 00:37:25;;;;;;;6.03;0.60;;;8.40;99.90;;;;;;5063907;28;20125;-86
2023/04/11 00:39:51;;;;;;;3.60;0.45;;;8.40;99.90;;;;;;5057089;28;20463;-85
2023/04/11 00:42:19;;;;;;;2.53;0.40;;;8.40;99.90;;;;;;5064205;28;20063;-89
2023/04/11 00:44:45;;;;;;;2.05;0.50;;;8.40;99.90;;;;;;5066010;28;20406;-86
2023/04/11 00:47:11;;;;;;;6.72;0.90;;;8.30;99.90;;;;;;5060954;28;20044;-88
2023/04/11 00:49:38;;;;;;;6.20;1.60;;;8.20;99.90;;;;;;5073016;28;20101;-86
2023/04/11 00:52:05;;;;;;;5.10;0.63;;;8.10;99.90;;;;;;5046633;28;20040;-87
2023/04/11 00:54:31;;;;;;;5.72;0.80;;;8.20;99.90;;;;;;5068466;28;20040;-87
2023/04/11 00:57:05;;;;;;;4.15;0.80;;;8.20;99.90;;;;;;5060410;28;20049;-86
2023/04/11 00:59:32;;;;;;;4.38;0.70;;;8.10;99.90;;;;;;5042700;28;20136;-88
2023/04/11 01:01:58;;;;;;;6.18;0.70;;;8.00;99.90;;;;;;5063940;28;20037;-89
2023/04/11 01:04:25;;;;;;;9.13;1.58;;;8.10;99.90;;;;;;5071464;28;20099;-90
2023/04/11 01:06:55;;;;;;;7.80;0.90;;;8.10;99.90;;;;;;5064269;28;20045;-88
2023/04/11 01:09:24;;;;;;;3.75;0.70;;;7.70;99.90;;;;;;5066450;28;20511;-88
2023/04/11 01:11:50;;;;;;;8.32;1.00;;;8.10;99.90;;;;;;5057356;28;20182;-89
2023/04/11 01:14:19;;;;;;;4.78;1.00;;;8.00;99.90;;;;;;5060178;28;20095;-89
2023/04/11 01:16:47;;;;;;;9.27;1.10;;;7.90;99.90;;;;;;5064360;28;20390;-88
2023/04/11 01:19:18;;;;;;;3.65;0.60;;;7.90;99.90;;;;;;5066469;28;20063;-87
2023/04/11 01:21:46;;;;;;;4.25;1.17;;;8.40;99.90;;;;;;5057790;28;20086;-88
2023/04/11 01:24:12;;;;;;;10.18;1.63;;;7.80;99.90;;;;;;5065307;28;20055;-87
2023/04/11 01:26:38;;;;;;;8.75;1.15;;;7.80;99.90;;;;;;5057049;28;20041;-87
2023/04/11 01:29:04;;;;;;;6.82;1.10;;;7.80;99.90;;;;;;5061703;28;20090;-86
2023/04/11 01:31:31;;;;;;;1.30;0.52;;;7.80;99.90;;;;;;5060916;28;20052;-88
2023/04/11 01:33:58;;;;;;;7.18;0.80;;;7.70;99.90;;;;;;5063334;28;20044;-85
2023/04/11 01:36:28;;;;;;;6.88;1.77;;;7.70;99.90;;;;;;5061723;28;20104;-86
2023/04/11 01:38:54;;;;;;;3.55;0.85;;;7.70;99.90;;;;;;5063511;28;20045;-87
2023/04/11 01:41:22;;;;;;;4.68;0.47;;;7.70;99.90;;;;;;5059599;28;20115;-86
2023/04/11 01:43:48;;;;;;;3.88;0.70;;;8.00;99.90;;;;;;5062342;28;20049;-88
2023/04/11 01:46:14;;;;;;;7.65;1.73;;;7.70;99.90;;;;;;5047960;28;20395;-88
2023/04/11 01:48:41;;;;;;;5.80;1.05;;;8.30;99.90;;;;;;5064257;28;20056;-87
2023/04/11 01:51:07;;;;;;;3.40;0.60;;;8.20;99.90;;;;;;5052831;28;20076;-86
2023/04/11 01:53:35;;;;;;;4.30;0.50;;;7.70;99.90;;;;;;5059218;28;20040;-88
2023/04/11 01:56:03;;;;;;;3.88;0.65;;;9.10;99.90;;;;;;5048076;28;20041;-86
2023/04/11 01:58:31;;;;;;;4.57;0.80;;;7.60;99.90;;;;;;5061749;28;20557;-86
2023/04/11 02:00:59;;;;;;;3.90;0.60;;;8.20;99.90;;;;;;5061418;28;20045;-86
2023/04/11 02:03:25;;;;;;;2.90;0.75;;;7.60;99.90;;;;;;5058723;28;20117;-87
2023/04/11 02:05:50;;;;;;;8.80;0.60;;;7.60;99.90;;;;;;5066576;28;20044;-86
2023/04/11 02:08:16;;;;;;;3.38;0.50;;;7.70;99.90;;;;;;5098479;28;20063;-87
2023/04/11 02:10:45;;;;;;;3.42;0.70;;;7.40;99.90;;;;;;5066254;28;20048;-86
2023/04/11 02:13:11;;;;;;;4.70;0.50;;;9.00;99.90;;;;;;5062548;28;20044;-87
2023/04/11 02:15:39;;;;;;;2.55;0.60;;;7.60;99.90;;;;;;5061929;28;20089;-87
2023/04/11 02:18:08;;;;;;;2.17;0.40;;;7.60;99.90;;;;;;5061771;28;20041;-86
2023/04/11 02:20:36;;;;;;;2.15;0.30;;;7.90;99.90;;;;;;5063585;28;20405;-86
2023/04/11 02:23:03;;;;;;;3.08;0.68;;;8.60;99.90;;;;;;5062367;28;20044;-86
2023/04/11 02:25:31;;;;;;;6.30;0.47;;;7.60;99.90;;;;;;5060210;28;20482;-86
2023/04/11 02:27:57;;;;;;;0.85;0.30;;;9.00;99.90;;;;;;5053628;28;20409;-87
2023/04/11 02:30:23;;;;;;;1.95;0.30;;;8.10;99.90;;;;;;5054787;28;20116;-86
2023/04/11 02:32:49;;;;;;;1.58;0.20;;;7.60;99.90;;;;;;5041990;28;20044;-87
2023/04/11 02:35:17;;;;;;;2.25;0.28;;;7.60;99.90;;;;;;5061812;28;20444;-85
2023/04/11 02:37:43;;;;;;;1.70;0.30;;;7.50;99.90;;;;;;5062260;28;20421;-86
2023/04/11 02:40:09;;;;;;;0.30;0.20;;;7.50;99.90;;;;;;5061234;28;20049;-86
2023/04/11 02:42:35;;;;;;;1.50;0.40;;;7.50;99.90;;;;;;5052382;28;20051;-87
2023/04/11 02:45:01;;;;;;;2.42;0.30;;;8.10;99.90;;;;;;5060513;28;20080;-85
2023/04/11 02:47:27;;;;;;;1.02;0.35;;;8.40;99.90;;;;;;5054793;28;20080;-88
2023/04/11 02:49:53;;;;;;;1.35;0.30;;;8.80;99.90;;;;;;5058239;28;20132;-88
2023/04/11 02:52:18;;;;;;;1.65;0.20;;;7.40;99.90;;;;;;5060811;28;20115;-89
2023/04/11 02:54:44;;;;;;;1.27;0.30;;;7.40;99.90;;;;;;5060611;28;20128;-87
2023/04/11 02:57:11;;;;;;;1.05;0.20;;;7.80;99.90;;;;;;5060040;28;20032;-87
2023/04/11 02:59:37;;;;;;;1.48;0.20;;;7.80;99.90;;;;;;5060054;28;20049;-86
2023/04/11 03:02:03;;;;;;;2.42;0.30;;;7.80;99.90;;;;;;5056601;28;20098;-86
2023/04/11 03:04:28;;;;;;;1.60;0.40;;;8.00;99.90;;;;;;5053195;28;20033;-86
2023/04/11 03:06:54;;;;;;;3.63;0.60;;;7.40;99.90;;;;;;5052426;28;20051;-86
2023/04/11 03:09:22;;;;;;;1.38;0.35;;;7.50;99.90;;;;;;5059992;28;20087;-86
2023/04/11 03:11:47;;;;;;;0.98;0.22;;;7.50;99.90;;;;;;5054555;28;20045;-87
2023/04/11 03:14:13;;;;;;;2.15;0.38;;;8.40;99.90;;;;;;5065213;28;20101;-87
2023/04/11 03:16:39;;;;;;;1.73;0.40;;;7.50;99.90;;;;;;5063635;28;20028;-86
2023/04/11 03:19:05;;;;;;;2.55;0.47;;;7.50;99.90;;;;;;5061833;28;20052;-86
2023/04/11 03:21:31;;;;;;;2.05;0.50;;;8.80;99.90;;;;;;5054770;28;20482;-87
2023/04/11 03:23:56;;;;;;;2.40;0.50;;;7.50;99.90;;;;;;5062932;28;20059;-87
2023/04/11 03:26:25;;;;;;;1.05;0.30;;;7.40;99.90;;;;;;5065711;28;20117;-86
2023/04/11 03:28:55;;;;;;;0.95;0.38;;;7.50;99.90;;;;;;5063621;28;20380;-88
2023/04/11 03:31:21;;;;;;;2.75;0.32;;;7.40;99.90;;;;;;5060587;28;20049;-86
2023/04/11 03:33:47;;;;;;;2.35;0.50;;;8.40;99.90;;;;;;5060444;28;20053;-88
2023/04/11 03:36:13;;;;;;;1.67;0.43;;;7.40;99.90;;;;;;5060476;28;20059;-87
2023/04/11 03:38:39;;;;;;;2.03;0.55;;;7.50;99.90;;;;;;5058457;28;20075;-87
2023/04/11 03:41:05;;;;;;;2.55;0.40;;;7.50;99.90;;;;;;5063384;28;20063;-87
2023/04/11 03:43:31;;;;;;;4.80;0.57;;;7.40;99.90;;;;;;5064857;28;20128;-87
2023/04/11 03:45:56;;;;;;;4.25;0.70;;;7.50;99.90;;;;;;5063805;28;20464;-85
2023/04/11 03:48:25;;;;;;;2.95;0.85;;;7.50;99.90;;;;;;5066565;28;20075;-87
2023/04/11 03:50:51;;;;;;;4.50;0.70;;;7.50;99.90;;;;;;5057326;28;20049;-87
2023/04/11 03:53:17;;;;;;;5.10;0.93;;;7.60;99.90;;;;;;5048224;28;20059;-87
2023/04/11 03:55:43;;;;;;;1.55;0.50;;;7.40;99.90;;;;;;5066077;28;20036;-86
2023/04/11 03:58:10;;;;;;;6.38;0.70;;;7.10;99.90;;;;;;5069722;28;20456;-87
2023/04/11 04:00:36;;;;;;;3.90;0.60;;;7.40;99.90;;;;;;5049108;28;20084;-87
2023/04/11 04:03:02;;;;;;;3.58;0.40;;;8.00;99.90;;;;;;5065824;28;20076;-87
2023/04/11 04:05:27;;;;;;;1.25;0.40;;;7.50;99.90;;;;;;5068422;28;20044;-87
2023/04/11 04:07:53;;;;;;;3.28;0.80;;;7.50;99.90;;;;;;5071953;28;20473;-87
2023/04/11 04:10:19;;;;;;;2.63;0.70;;;7.80;99.90;;;;;;5072342;28;20059;-86
2023/04/11 04:12:45;;;;;;;3.55;0.75;;;7.50;99.90;;;;;;5069464;28;20044;-87
2023/04/11 04:15:13;;;;;;;2.40;0.50;;;8.30;99.90;;;;;;5068494;28;20478;-86
2023/04/11 04:17:40;;;;;;;2.08;0.60;;;8.10;99.90;;;;;;5073069;28;20049;-87
2023/04/11 04:20:09;;;;;;;2.20;0.60;;;7.20;99.90;;;;;;5066602;28;20511;-85
2023/04/11 04:22:36;;;;;;;6.55;0.70;;;7.60;99.90;;;;;;5066102;28;20048;-85
2023/04/11 04:25:02;;;;;;;1.63;0.50;;;8.40;99.90;;;;;;5069401;28;20059;-86
2023/04/11 04:27:27;;;;;;;4.60;0.80;;;7.60;99.90;;;;;;5071599;28;20045;-87
2023/04/11 04:29:55;;;;;;;2.58;0.60;;;7.60;99.90;;;;;;5049078;28;20044;-86
2023/04/11 04:32:22;;;;;;;2.13;0.40;;;7.60;99.90;;;;;;5067406;28;20048;-86
2023/04/11 04:34:55;;;;;;;1.33;0.70;;;7.40;99.90;;;;;;5067533;28;20531;-85
2023/04/11 04:37:23;;;;;;;3.13;0.60;;;7.70;99.90;;;;;;5057356;28;20134;-86
2023/04/11 04:40:00;;;;;;;3.78;0.50;;;7.50;99.90;;;;;;5063634;28;20045;-86
2023/04/11 04:42:27;;;;;;;2.78;0.50;;;7.50;99.90;;;;;;5059555;28;20552;-87
2023/04/11 04:44:55;;;;;;;2.10;0.50;;;7.50;99.90;;;;;;5062368;28;20067;-86
2023/04/11 04:47:23;;;;;;;2.20;0.47;;;7.60;99.90;;;;;;5066320;28;20041;-88
2023/04/11 04:49:56;;;;;;;2.58;0.50;;;7.50;99.90;;;;;;5046659;28;20049;-85
2023/04/11 04:52:24;;;;;;;0.63;0.30;;;7.50;99.90;;;;;;5066115;28;20512;-87
2023/04/11 04:54:52;;;;;;;5.25;1.00;;;7.60;99.90;;;;;;5063049;28;20049;-86
2023/04/11 04:57:20;;;;;;;1.77;0.50;;;7.50;99.90;;;;;;5063147;28;20052;-86
2023/04/11 04:59:46;;;;;;;4.95;0.60;;;7.60;99.90;;;;;;5063977;28;20049;-86
2023/04/11 05:02:11;;;;;;;6.47;0.95;;;7.90;99.90;;;;;;5062848;28;20490;-85
2023/04/11 05:04:37;;;;;;;2.05;0.77;;;7.60;99.90;;;;;;5063989;28;20048;-86
2023/04/11 05:07:03;;;;;;;1.63;0.60;;;7.60;99.90;;;;;;5063712;28;20071;-88
2023/04/11 05:09:29;;;;;;;4.40;0.65;;;7.60;99.90;;;;;;5062403;28;20091;-86
2023/04/11 05:11:55;;;;;;;673.38;399.17;;;7.60;99.90;;;;;;5061180;28;20055;-86
2023/04/11 05:14:21;;;;;;;2.78;0.70;;;7.10;99.90;;;;;;5058587;28;20048;-86
2023/04/11 05:16:47;;;;;;;4.25;0.95;;;7.50;99.90;;;;;;5063544;28;20509;-86
2023/04/11 05:19:12;;;;;;;2.53;0.70;;;7.40;99.90;;;;;;5065132;28;20123;-85
2023/04/11 05:24:25;;;;;;;0.95;0.60;;;7.60;99.90;;;;;;5051518;22;20046;-84
2023/04/11 05:26:51;;;;;;;1.65;0.55;;;7.60;99.90;;;;;;5044760;28;20063;-85
2023/04/11 05:29:17;;;;;;;1.85;0.45;;;9.00;99.90;;;;;;5047452;28;20112;-87
2023/04/11 05:31:42;;;;;;;0.75;0.35;;;7.40;99.90;;;;;;5046520;28;20045;-83
2023/04/11 05:34:08;;;;;;;1.20;0.52;;;7.40;99.90;;;;;;5049478;28;20049;-85
2023/04/11 05:36:35;;;;;;;1.23;0.30;;;7.30;99.90;;;;;;5050840;28;21372;-82
2023/04/11 05:39:01;;;;;;;0.50;0.30;;;7.30;99.90;;;;;;5046999;28;20053;-82
2023/04/11 05:41:27;;;;;;;2.50;0.40;;;7.30;99.90;;;;;;5052292;28;20123;-85
2023/04/11 05:43:52;;;;;;;1.45;0.50;;;7.20;99.90;;;;;;5046161;28;20076;-86
2023/04/11 05:46:18;;;;;;;2.70;0.60;;;7.30;99.90;;;;;;5055696;28;20033;-83
2023/04/11 05:48:44;;;;;;;153.57;138.73;;;7.30;99.90;;;;;;5054909;28;20121;-85
2023/04/11 05:51:10;;;;;;;1.10;0.50;;;7.30;99.90;;;;;;5038350;28;20049;-83
2023/04/11 05:53:36;;;;;;;2.05;0.50;;;7.30;99.90;;;;;;5045665;28;20473;-83
2023/04/11 05:56:02;;;;;;;2.40;0.70;;;7.20;99.90;;;;;;5036110;28;20640;-87
2023/04/11 05:58:28;;;;;;;3.05;0.82;;;7.30;99.90;;;;;;5050251;28;20045;-84
2023/04/11 06:00:56;;;;;;;3.17;1.95;;;7.20;99.90;;;;;;5050927;28;20045;-85
2023/04/11 06:03:22;;;;;;;3.67;0.55;;;7.20;99.90;;;;;;5052997;28;20498;-83
2023/04/11 06:05:48;;;;;;;4.60;0.70;;;7.20;99.90;;;;;;5057251;28;20048;-86
2023/04/11 06:08:14;;;;;;;3.65;0.50;;;7.30;99.90;;;;;;5046935;28;20053;-83
2023/04/11 06:10:40;;;;;;;1.45;0.40;;;8.40;99.90;;;;;;5044209;28;20112;-86
2023/04/11 06:13:05;;;;;;;0.85;0.30;;;7.50;99.90;;;;;;5043003;28;20048;-86
2023/04/11 06:15:31;;;;;;;3.53;0.47;;;7.30;99.90;;;;;;5045884;28;20037;-83
2023/04/11 06:17:57;;;;;;;1.92;0.40;;;7.20;99.90;;;;;;5047288;28;20486;-87
2023/04/11 06:20:23;;;;;;;4.57;0.40;;;7.10;99.90;;;;;;5047560;28;20037;-89
2023/04/11 06:22:52;;;;;;;1.17;0.40;;;8.30;99.90;;;;;;5042575;28;20045;-86
2023/04/11 06:25:20;;;;;;;2.47;0.50;;;6.90;99.90;;;;;;5056160;28;20044;-88
2023/04/11 06:27:47;;;;;;;1.83;0.57;;;6.90;99.90;;;;;;5057569;28;20072;-88
2023/04/11 06:30:13;;;;;;;2.03;0.30;;;6.90;99.90;;;;;;5046236;28;20072;-90
2023/04/11 06:32:39;;;;;;;2.65;0.30;;;6.90;99.90;;;;;;5042961;28;20037;-86
2023/04/11 06:35:05;;;;;;;5.70;0.60;;;6.90;99.90;;;;;;5050595;28;20088;-88
2023/04/11 06:37:31;;;;;;;3.15;0.60;;;6.90;99.90;;;;;;5056776;28;20489;-85
2023/04/11 06:40:00;;;;;;;5.32;0.98;;;7.00;99.90;;;;;;5056855;28;20047;-84
2023/04/11 06:42:26;;;;;;;1.15;0.50;;;7.00;99.90;;;;;;5025323;28;20497;-86
2023/04/11 06:44:52;;;;;;;4.65;0.82;;;7.10;99.90;;;;;;5024649;28;20044;-87
2023/04/11 06:47:18;;;;;;;3.58;0.70;;;8.30;99.90;;;;;;5046410;28;20124;-90
2023/04/11 06:49:44;;;;;;;4.60;1.23;;;7.50;99.90;;;;;;5050639;28;20098;-88
2023/04/11 06:52:10;;;;;;;1.77;0.50;;;7.20;99.90;;;;;;5045011;28;20040;-87
2023/04/11 06:54:35;;;;;;;3.15;0.60;;;7.20;99.90;;;;;;5043418;28;20045;-84
2023/04/11 06:57:02;;;;;;;6.20;0.55;;;7.20;99.90;;;;;;5023895;28;20052;-84
2023/04/11 06:59:28;;;;;;;3.30;0.55;;;7.30;99.90;;;;;;5051592;28;20041;-82
2023/04/11 07:01:53;;;;;;;3.83;0.80;;;7.60;99.90;;;;;;5053461;28;20041;-85
2023/04/11 07:04:22;;;;;;;5.03;0.77;;;7.60;99.90;;;;;;5053032;28;20044;-86
2023/04/11 07:06:48;;;;;;;8.40;1.20;;;7.60;99.90;;;;;;5049247;28;20518;-85
2023/04/11 07:09:20;;;;;;;5.47;1.08;;;7.60;99.90;;;;;;5049678;28;20124;-89
2023/04/11 07:11:46;;;;;;;8.02;1.30;;;7.60;99.90;;;;;;5041558;28;20037;-83
2023/04/11 07:14:11;;;;;;;7.38;1.00;;;7.50;99.90;;;;;;5045872;28;20452;-87
2023/04/11 07:16:37;;;;;;;5.75;0.90;;;7.60;99.90;;;;;;5020636;28;20470;-86
2023/04/11 07:19:03;;;;;;;2.75;0.82;;;7.80;99.90;;;;;;5048813;28;20045;-84
2023/04/11 07:21:31;;;;;;;8.45;1.40;;;8.00;99.90;;;;;;5050217;28;20174;-81
2023/04/11 07:23:57;;;;;;;3.78;0.90;;;8.00;99.90;;;;;;5042051;28;20041;-81
2023/04/11 07:26:23;;;;;;;8.27;1.17;;;8.10;99.90;;;;;;5047898;28;20063;-85
2023/04/11 07:28:49;;;;;;;6.93;1.85;;;8.20;99.90;;;;;;5036424;28;20048;-82
2023/04/11 07:31:16;;;;;;;8.48;1.15;;;8.30;99.90;;;;;;5032222;28;20041;-84
2023/04/11 07:33:42;;;;;;;9.75;1.30;;;9.00;99.90;;;;;;5053424;28;20106;-81
2023/04/11 07:36:09;;;;;;;4.93;1.02;;;8.80;99.90;;;;;;5053923;28;20049;-82
2023/04/11 07:38:36;;;;;;;8.90;1.05;;;8.50;99.90;;;;;;5050727;28;20402;-90
2023/04/11 07:41:03;;;;;;;6.18;0.90;;;8.70;99.90;;;;;;5040070;28;20045;-83
2023/04/11 07:43:30;;;;;;;97.38;58.00;;;8.70;99.90;;;;;;5033700;28;20046;-85
2023/04/11 07:45:57;;;;;;;4.45;1.10;;;8.00;99.90;;;;;;5043621;28;20044;-82
2023/04/11 07:48:25;;;;;;;9.05;0.85;;;8.70;99.90;;;;;;5051809;28;20429;-82
2023/04/11 07:50:52;;;;;;;3.45;1.00;;;8.90;99.90;;;;;;5048935;28;20499;-81
2023/04/11 07:53:17;;;;;;;5.85;0.80;;;8.90;99.90;;;;;;5042699;28;20045;-83
2023/04/11 07:55:43;;;;;;;12.70;1.00;;;8.20;99.90;;;;;;5052907;28;20037;-82
2023/04/11 07:58:09;;;;;;;6.78;1.23;;;9.10;99.90;;;;;;5053317;28;20449;-82
2023/04/11 08:00:35;;;;;;;5.60;0.90;;;9.30;99.90;;;;;;5053399;28;20045;-83
2023/04/11 08:03:08;;;;;;;7.53;1.00;;;9.50;99.90;;;;;;5052282;28;20071;-83
2023/04/11 08:05:35;;;;;;;9.05;1.15;;;9.60;99.90;;;;;;5052895;28;20569;-82
2023/04/11 08:08:02;;;;;;;10.55;1.00;;;9.60;99.90;;;;;;5053197;28;20037;-82
2023/04/11 08:10:28;;;;;;;7.82;1.23;;;9.60;99.90;;;;;;5051826;28;20045;-82
2023/04/11 08:12:54;;;;;;;6.45;1.75;;;9.90;99.90;;;;;;5033103;28;20124;-82
2023/04/11 08:15:21;;;;;;;4.25;0.63;;;9.70;99.90;;;;;;5034376;28;20089;-82
2023/04/11 08:17:48;;;;;;;8.05;1.40;;;9.70;99.90;;;;;;5043131;28;20075;-83
2023/04/11 08:20:15;;;;;;;7.78;0.70;;;9.60;99.90;;;;;;5051614;28;20052;-83
2023/04/11 08:22:45;;;;;;;6.70;1.02;;;9.60;99.90;;;;;;5054958;28;20065;-84
2023/04/11 08:25:12;;;;;;;4.80;0.75;;;9.60;99.90;;;;;;5053154;28;20110;-83
2023/04/11 08:27:38;;;;;;;2.85;0.98;;;9.50;99.90;;;;;;5041203;28;20038;-84
2023/04/11 08:30:07;;;;;;;3.00;0.50;;;9.30;99.90;;;;;;5036625;28;20045;-83
2023/04/11 08:32:36;;;;;;;6.93;0.90;;;9.20;99.90;;;;;;5036777;28;20129;-82
2023/04/11 08:35:02;;;;;;;5.05;0.73;;;9.30;99.90;;;;;;5036851;28;20046;-84
2023/04/11 08:37:29;;;;;;;4.40;0.60;;;9.50;99.90;;;;;;5037541;28;20060;-84
2023/04/11 08:39:58;;;;;;;1.55;0.50;;;9.60;99.90;;;;;;5039257;28;20033;-82
2023/04/11 08:42:30;;;;;;;3.83;0.60;;;9.70;99.90;;;;;;5036424;28;20103;-82
2023/04/11 08:44:59;;;;;;;1.38;0.40;;;9.60;99.90;;;;;;5036070;28;20133;-83
2023/04/11 08:47:25;;;;;;;2.58;0.60;;;10.00;99.90;;;;;;5047423;28;20037;-82
2023/04/11 08:49:52;;;;;;;5.80;0.50;;;10.50;99.90;;;;;;5036120;28;20128;-84
2023/04/11 08:52:19;;;;;;;4.85;0.70;;;9.40;99.90;;;;;;5036004;28;20557;-83
2023/04/11 08:54:46;;;;;;;6.65;0.65;;;9.20;99.90;;;;;;5036635;28;20098;-87
2023/04/11 08:57:27;;;;;;;2.30;0.60;;;9.20;99.90;;;;;;5037159;28;20037;-83
2023/04/11 09:00:07;;;;;;;6.25;0.90;;;9.30;99.90;;;;;;5017997;28;20050;-84
2023/04/11 09:02:32;;;;;;;4.57;0.90;;;9.50;99.90;;;;;;5048032;28;20044;-83
2023/04/11 09:04:58;;;;;;;6.38;0.70;;;9.80;99.90;;;;;;5054828;28;20049;-82
2023/04/11 09:07:25;;;;;;;2.88;0.50;;;9.80;99.90;;;;;;5053186;28;20052;-82
2023/04/11 09:09:51;;;;;;;1.38;0.50;;;9.70;99.90;;;;;;5055425;28;20441;-82
2023/04/11 09:12:27;;;;;;;2.33;0.40;;;9.70;99.90;;;;;;5054635;28;20041;-82
2023/04/11 09:14:53;;;;;;;3.92;0.60;;;9.70;99.90;;;;;;5050919;28;20039;-84
2023/04/11 09:17:19;;;;;;;2.28;0.60;;;9.80;99.90;;;;;;5046295;28;20045;-82
2023/04/11 09:19:45;;;;;;;3.83;0.68;;;9.90;99.90;;;;;;5037393;28;20115;-83
2023/04/11 09:22:12;;;;;;;4.47;0.90;;;9.90;99.90;;;;;;5052860;28;20847;-82
2023/04/11 09:24:38;;;;;;;4.10;0.70;;;9.90;99.90;;;;;;5055370;28;20060;-82
2023/04/11 09:27:15;;;;;;;3.28;0.88;;;9.80;99.90;;;;;;5055067;28;20039;-82
2023/04/11 09:29:42;;;;;;;4.57;0.60;;;9.50;99.90;;;;;;5054894;28;20053;-83
2023/04/11 09:32:32;;;;;;;2.45;0.45;;;9.80;99.90;;;;;;5054517;28;20074;-83
2023/04/11 09:35:11;;;;;;;4.90;0.40;;;9.20;99.90;;;;;;5055570;28;20053;-83
2023/04/11 09:37:45;;;;;;;6.00;0.70;;;9.00;99.90;;;;;;5051637;28;20044;-83
2023/04/11 09:40:13;;;;;;;2.58;0.70;;;9.00;99.90;;;;;;5042820;28;20409;-85
2023/04/11 09:42:42;;;;;;;3.25;0.80;;;8.90;99.90;;;;;;5052504;28;20055;-83
2023/04/11 09:45:22;;;;;;;6.95;1.35;;;9.20;99.90;;;;;;5035732;28;20132;-83
2023/04/11 09:47:50;;;;;;;4.30;0.70;;;9.50;99.90;;;;;;5038037;28;20132;-82
2023/04/11 09:50:18;;;;;;;6.93;0.80;;;9.70;99.90;;;;;;5035124;28;20049;-83
2023/04/11 09:52:45;;;;;;;4.93;0.80;;;9.80;99.90;;;;;;5043079;28;20079;-83
2023/04/11 09:55:23;;;;;;;2.47;0.65;;;9.90;99.90;;;;;;5048941;28;20668;-83
2023/04/11 09:57:51;;;;;;;3.90;0.60;;;9.80;99.90;;;;;;5037349;28;20055;-82
2023/04/11 10:00:23;;;;;;;2.53;0.65;;;9.70;99.90;;;;;;5048404;28;20055;-82
2023/04/11 10:02:53;;;;;;;2.38;0.60;;;9.70;99.90;;;;;;5054987;28;20359;-84
2023/04/11 10:05:24;;;;;;;7.30;0.85;;;9.60;99.90;;;;;;5053278;28;20398;-83
2023/04/11 10:07:57;;;;;;;3.60;0.60;;;9.00;99.90;;;;;;5042830;28;20128;-83
2023/04/11 10:10:24;;;;;;;2.13;0.30;;;9.50;99.90;;;;;;5017282;28;20045;-81
2023/04/11 10:12:50;;;;;;;1.52;0.50;;;9.30;99.90;;;;;;5051031;28;20045;-85
2023/04/11 10:15:17;;;;;;;3.63;0.40;;;9.10;99.90;;;;;;5049692;28;20052;-83
2023/04/11 10:18:10;;;;;;;2.45;0.40;;;9.60;99.90;;;;;;5049973;28;20079;-83
2023/04/11 10:20:44;;;;;;;0.70;0.30;;;8.90;99.90;;;;;;5052694;28;20067;-84
2023/04/11 10:23:11;;;;;;;3.88;0.30;;;8.80;99.90;;;;;;5051408;28;20575;-82
2023/04/11 10:26:07;;;;;;;1.70;0.40;;;8.80;99.90;;;;;;5047650;28;20057;-84
2023/04/11 10:28:38;;;;;;;5.75;0.60;;;8.80;99.90;;;;;;5048467;28;20052;-83
2023/04/11 10:31:16;;;;;;;3.85;0.43;;;9.00;99.90;;;;;;5043975;28;20131;-82
2023/04/11 10:34:12;;;;;;;2.55;0.50;;;9.40;99.90;;;;;;5040258;28;20049;-84
2023/04/11 10:37:02;;;;;;;6.40;0.70;;;9.50;99.90;;;;;;5044968;28;20187;-81
2023/04/11 10:39:52;;;;;;;6.15;0.73;;;9.70;99.90;;;;;;5047117;28;20075;-88
2023/04/11 10:42:28;;;;;;;3.92;0.70;;;9.60;99.90;;;;;;5045884;28;20453;-85
2023/04/11 10:45:28;;;;;;;2.70;0.57;;;9.70;99.90;;;;;;5035699;28;20048;-83
2023/04/11 10:48:11;;;;;;;7.25;0.57;;;9.80;99.90;;;;;;5034268;28;20069;-83
2023/04/11 10:50:44;;;;;;;4.60;0.60;;;9.90;99.90;;;;;;5039532;28;20038;-83
2023/04/11 10:53:33;;;;;;;2.25;0.60;;;10.20;99.90;;;;;;5043589;28;20509;-83
2023/04/11 10:56:00;;;;;;;3.95;0.80;;;10.40;99.90;;;;;;5048060;28;20041;-84
2023/04/11 10:58:38;;;;;;;2.40;0.85;;;10.50;99.90;;;;;;5037360;28;20045;-84
2023/04/11 11:01:15;;;;;;;5.93;0.60;;;10.30;99.90;;;;;;5052592;28;20048;-86
2023/04/11 11:03:51;;;;;;;4.60;0.50;;;10.00;99.90;;;;;;5046155;28;20045;-82
2023/04/11 11:06:17;;;;;;;4.05;0.60;;;10.00;99.90;;;;;;5050690;28;20074;-83
2023/04/11 11:08:45;;;;;;;4.03;0.45;;;10.10;99.90;;;;;;5037278;28;20041;-82
2023/04/11 11:11:12;;;;;;;1.67;0.50;;;10.40;99.90;;;;;;5046879;28;20572;-82
2023/04/11 11:13:39;;;;;;;4.30;0.60;;;10.70;99.90;;;;;;5050326;28;20120;-85
2023/04/11 11:16:06;;;;;;;4.65;0.68;;;11.10;99.90;;;;;;5053985;28;20044;-83
2023/04/11 11:18:33;;;;;;;4.32;0.40;;;11.30;99.90;;;;;;5053086;28;20158;-83
2023/04/11 11:20:59;;;;;;;2.78;0.40;;;11.50;99.90;;;;;;5026721;28;20063;-85
2023/04/11 11:23:25;;;;;;;2.10;0.40;;;11.60;99.90;;;;;;5039662;28;20053;-84
2023/04/11 11:25:56;;;;;;;3.42;0.50;;;12.10;99.90;;;;;;5047677;28;20110;-84
2023/04/11 11:28:23;;;;;;;10.18;2.55;;;11.70;99.90;;;;;;5045779;28;20119;-82
2023/04/11 11:30:51;;;;;;;6.28;0.98;;;11.50;99.90;;;;;;5052396;28;20076;-84
2023/04/11 11:33:19;;;;;;;4.28;0.90;;;11.20;99.90;;;;;;5040872;28;20037;-88
2023/04/11 11:36:03;;;;;;;3.95;0.55;;;10.80;99.90;;;;;;5044264;28;20049;-90
2023/04/11 11:38:30;;;;;;;5.22;0.98;;;10.50;99.90;;;;;;5049772;28;20041;-84
2023/04/11 11:40:57;;;;;;;3.67;0.55;;;10.30;99.90;;;;;;5045911;28;20044;-87
2023/04/11 11:43:33;;;;;;;4.30;0.68;;;10.20;99.90;;;;;;5034756;28;20041;-87
2023/04/11 11:46:12;;;;;;;4.22;0.73;;;10.30;99.90;;;;;;5037703;28;20037;-84
2023/04/11 11:48:40;;;;;;;4.28;0.80;;;10.10;99.90;;;;;;5051596;28;20041;-88
2023/04/11 11:51:06;;;;;;;7.18;1.08;;;10.10;99.90;;;;;;5044073;28;20055;-84
2023/04/11 11:53:32;;;;;;;4.68;1.00;;;10.00;99.90;;;;;;5044694;28;20044;-85
2023/04/11 11:56:12;;;;;;;5.90;0.60;;;10.90;99.90;;;;;;5042804;28;20045;-85
2023/04/11 11:58:44;;;;;;;3.70;0.60;;;9.90;99.90;;;;;;5043394;28;20041;-83
2023/04/11 12:01:13;;;;;;;5.47;0.70;;;9.80;99.90;;;;;;5043854;28;20124;-88
2023/04/11 12:03:40;;;;;;;3.50;0.70;;;9.80;99.90;;;;;;5037863;28;20033;-84
2023/04/11 12:06:09;;;;;;;5.57;0.57;;;9.80;99.90;;;;;;5056295;28;20509;-85
2023/04/11 12:08:42;;;;;;;9.85;1.15;;;9.80;99.90;;;;;;5038209;28;20041;-85
2023/04/11 12:11:14;;;;;;;3.88;0.50;;;9.60;99.90;;;;;;5036707;28;20510;-84
2023/04/11 12:13:40;;;;;;;2.22;0.50;;;9.60;99.90;;;;;;5020458;28;20049;-83
2023/04/11 12:16:06;;;;;;;3.05;0.50;;;9.40;99.90;;;;;;5048623;28;20374;-83
2023/04/11 12:18:32;;;;;;;2.70;0.40;;;9.40;99.90;;;;;;5048245;28;20138;-84
2023/04/11 12:20:58;;;;;;;4.97;0.60;;;9.50;99.90;;;;;;5053973;28;20127;-86
2023/04/11 12:23:24;;;;;;;2.90;0.50;;;9.80;99.90;;;;;;5050658;28;20144;-83
2023/04/11 12:25:53;;;;;;;2.08;0.45;;;10.20;99.90;;;;;;5030211;28;20136;-85
2023/04/11 12:28:23;;;;;;;5.05;0.93;;;10.50;99.90;;;;;;5033687;28;20037;-85
2023/04/11 12:30:49;;;;;;;2.85;0.65;;;10.90;99.90;;;;;;5050489;28;20037;-84
2023/04/11 12:33:18;;;;;;;3.35;0.63;;;11.10;99.90;;;;;;5044148;28;20123;-86
2023/04/11 12:35:44;;;;;;;3.08;0.70;;;11.30;99.90;;;;;;5053580;28;20124;-83
2023/04/11 12:38:10;;;;;;;5.85;1.17;;;11.20;99.90;;;;;;5046753;28;20052;-82
2023/04/11 12:40:36;;;;;;;7.68;0.90;;;11.40;99.90;;;;;;5042129;28;20092;-83
2023/04/11 12:43:02;;;;;;;7.90;0.90;;;11.20;99.90;;;;;;5052927;28;20068;-84
2023/04/11 12:45:28;;;;;;;5.05;0.90;;;11.10;99.90;;;;;;5048704;28;20044;-86
2023/04/11 12:47:53;;;;;;;4.03;0.63;;;11.10;99.90;;;;;;5051062;28;20481;-81
2023/04/11 12:50:22;;;;;;;3.67;0.75;;;11.30;99.90;;;;;;5049487;28;20083;-88
2023/04/11 12:52:48;;;;;;;4.15;0.88;;;11.50;99.90;;;;;;5040599;28;20033;-86
2023/04/11 12:55:14;;;;;;;4.22;0.60;;;11.90;99.90;;;;;;5053267;28;20045;-83
2023/04/11 12:57:40;;;;;;;4.93;0.47;;;11.90;99.90;;;;;;5046904;28;20037;-84
2023/04/11 13:00:07;;;;;;;6.00;1.05;;;11.70;99.90;;;;;;5040122;28;20486;-85
2023/04/11 13:02:34;;;;;;;2.10;0.50;;;11.40;99.90;;;;;;5047918;28;20041;-84